Village Of Nagog Woods, Massachusetts
Current Conditions -  °F | °C
As of 11:56 PM on Saturday 25 Oct 2014 (Local Time) from KBED Reporting Station
Scattered Clouds Scattered Clouds  
Wind Chill: 53°   Ceiling: Unl
Heat Index: 53°   Visibility: 10mi
Dew Point: 45°   Wind: 6mph
Humidity: 74%   Direction: 240°WSW
Pressure: 29.49"   Gusts: NA
Location:  42.52°N, 71.43°W
Report Text: KBED 260356Z 24005KT 10SM FEW060 SCT110 12/07 A2949 RMK AO2 SLP997 T01170072
Loading
Personal Weather Stations






























Interactive Weather Map
Tropical Storm Tracking
New forecast layout! Learn more

10-Day Weather Forecast

Advertisements
Track Severe Weather on mobile